Airfield :
LOGIN :

Register | Disclaimer

   EN    FR    IT 

 










Legend :    VFR   Marginal VFR   IFR   Intensive IFR   Very Intensive IFR
Visi :
Ceiling :
>= 8 km
>= 3000ft
5 to 8 km
1000 to 3000 ft
1500m to 5 km
500 to 1000 ft
800 to 1500m
200 to 500 ft
< 800m
< 200 ft
Symbols :   Thunderstorms  Fog  Heavy snow  Heavy precipitations  Wind > 20 kt
SIGMETs :     Misc.  Thunderstorms  Icing  Turbulence  Mountain Waves  Volcanic Ashes







- Airport Elevation : 137 ft


LIPS - Istrana AFB Treviso

CURRENT METAR :
  • 231255Z 10003KT CAVOK 11/04 Q1023 RMK SKC VIS MIN 9999 WIND THR26 13002KT WIND THR08 11003KT BLU

EXPIRED METARs :
  • 231155Z 14003KT CAVOK 10/03 Q1023 RMK SKC VIS MIN 9999 WIND THR26 00000KT WIND THR08 33002KT BLU
  • 231055Z 17003KT CAVOK 09/02 Q1023 RMK SKC VIS MIN 9999 WIND THR26 00000KT WIND THR08 31002KT BLU

TAF TAF LIPS
Valid from the 23 at 12:00 until the 23 at 21:00 UTC


231100Z 2312/2321 02005KT 9999 SCT080
BECMG 2316/2318 5000 BR NSC
No reported NOTAMs for that airfield.
1 SIGMET reported for the Milano FIR (LIMM) :
 
Severe turbulence
LIMM SIGMET 4 VALID 231230/231430 LIIP
LIMM MILANO FIR SEV TURB FCST E OF LINE N4647 E00927 - N4331 E01154 ABV FL230 MOV E NC=



MET'MAP, your aeronautical weather chart ! - Copyright ORBIFLY December 2007 - Disclaimer

ORBIFLY MET'MAP TEAM :

Programming & Development : Alexandra Zaïnal
Concept & Development : Baudouin d'Aumeries
Co-Development & Prog : Marc-Olivier Méhu
Technical & hardware support : Manuel Goepfert

Contact : metmap@orbifly.com




SOURCES & CREDITS :

   NOAA